createdAt,value
2018-06-28T00:02:00.268Z,1.82
2018-06-28T00:04:02.213Z,1.70
2018-06-28T00:06:04.225Z,1.55
2018-06-28T00:08:06.188Z,1.60
2018-06-28T00:10:08.129Z,1.82
2018-06-28T00:12:10.091Z,1.95
2018-06-28T00:14:12.049Z,1.50
2018-06-28T00:16:14.075Z,1.45
2018-06-28T00:18:16.037Z,1.67
2018-06-28T00:20:17.992Z,1.70
2018-06-28T00:22:19.961Z,1.75
2018-06-28T00:24:21.924Z,1.60
2018-06-28T00:26:23.875Z,1.70
2018-06-28T00:28:25.841Z,1.65
2018-06-28T00:30:27.823Z,1.80
2018-06-28T00:32:29.757Z,1.60
2018-06-28T00:34:31.739Z,1.47
2018-06-28T00:36:33.683Z,1.82
2018-06-28T00:38:35.749Z,1.80
2018-06-28T00:40:37.709Z,1.52
2018-06-28T00:42:39.690Z,1.90
2018-06-28T00:44:41.665Z,2.17
2018-06-28T00:46:43.619Z,1.60
2018-06-28T00:48:45.593Z,1.50
2018-06-28T00:50:47.547Z,1.80
2018-06-28T00:52:49.521Z,1.60
2018-06-28T00:54:51.490Z,1.85
2018-06-28T00:56:53.460Z,1.67
2018-06-28T00:58:55.411Z,1.98
2018-06-28T01:00:57.384Z,1.50
2018-06-28T01:02:59.358Z,1.70
2018-06-28T01:05:01.317Z,2.05
2018-06-28T01:07:03.262Z,1.67
2018-06-28T01:09:05.214Z,1.80
2018-06-28T01:11:07.184Z,1.72
2018-06-28T01:13:09.146Z,1.70
2018-06-28T01:15:11.119Z,1.60
2018-06-28T01:17:13.084Z,1.80
2018-06-28T01:19:15.076Z,1.57
2018-06-28T01:21:17.024Z,1.40
2018-06-28T01:23:18.968Z,1.80
2018-06-28T01:25:20.957Z,1.72
2018-06-28T01:27:22.914Z,1.60
2018-06-28T01:29:24.883Z,1.80
2018-06-28T01:31:26.836Z,1.60
2018-06-28T01:33:28.794Z,1.60
2018-06-28T01:35:30.744Z,1.50
2018-06-28T01:37:32.714Z,1.70
2018-06-28T01:39:34.686Z,1.20
2018-06-28T01:41:36.691Z,1.62
2018-06-28T01:43:38.680Z,1.60
2018-06-28T01:45:40.637Z,1.55
2018-06-28T01:47:42.614Z,1.60
2018-06-28T01:49:44.569Z,1.60
2018-06-28T01:51:46.513Z,1.50
2018-06-28T01:53:48.482Z,1.62
2018-06-28T01:55:50.440Z,1.70
2018-06-28T01:57:52.414Z,1.60
2018-06-28T01:59:54.368Z,1.75
2018-06-28T02:01:56.331Z,1.42
2018-06-28T02:03:58.308Z,1.65
2018-06-28T02:06:00.254Z,1.72
2018-06-28T02:08:02.228Z,1.60
2018-06-28T02:10:04.180Z,1.42
2018-06-28T02:12:06.142Z,1.80
2018-06-28T02:14:08.103Z,1.92
2018-06-28T02:16:10.060Z,1.70
2018-06-28T02:18:12.401Z,1.70
2018-06-28T02:20:14.246Z,1.70
2018-06-28T02:22:16.206Z,1.70
2018-06-28T02:24:18.187Z,1.57
2018-06-28T02:26:20.544Z,1.42
2018-06-28T02:28:22.370Z,1.60
2018-06-28T02:30:24.348Z,1.50
2018-06-28T02:32:26.316Z,1.70
2018-06-28T02:34:28.288Z,1.60
2018-06-28T02:36:30.248Z,1.50
2018-06-28T02:38:32.208Z,1.77
2018-06-28T02:40:34.170Z,1.22
2018-06-28T02:42:36.118Z,1.42
2018-06-28T02:44:38.462Z,1.50
2018-06-28T02:46:40.311Z,1.62
2018-06-28T02:48:42.260Z,1.30
2018-06-28T02:50:44.270Z,1.75
2018-06-28T02:52:46.204Z,1.62
2018-06-28T02:54:48.156Z,1.70
2018-06-28T02:56:50.124Z,1.57
2018-06-28T02:58:52.102Z,1.37
2018-06-28T03:00:54.052Z,1.85
2018-06-28T03:02:56.027Z,1.87
2018-06-28T03:04:57.986Z,1.60
2018-06-28T03:06:59.949Z,2.30
2018-06-28T03:09:01.911Z,1.85
2018-06-28T03:11:03.950Z,1.62
2018-06-28T03:13:05.907Z,1.50
2018-06-28T03:15:07.881Z,1.52
2018-06-28T03:17:09.825Z,1.40
2018-06-28T03:19:12.057Z,1.50
2018-06-28T03:21:14.010Z,1.77
2018-06-28T03:23:15.984Z,1.65
2018-06-28T03:25:17.953Z,1.85
2018-06-28T03:27:19.926Z,1.65
2018-06-28T03:29:21.876Z,1.65
2018-06-28T03:31:23.822Z,1.65
2018-06-28T03:33:25.802Z,1.85
2018-06-28T03:35:27.779Z,1.70
2018-06-28T03:37:29.734Z,1.60
2018-06-28T03:39:31.694Z,1.32
2018-06-28T03:41:33.644Z,2.00
2018-06-28T03:43:35.625Z,1.57
2018-06-28T03:45:37.561Z,1.52
2018-06-28T03:47:39.528Z,1.72
2018-06-28T03:49:41.484Z,1.45
2018-06-28T03:51:43.476Z,1.77
2018-06-28T03:53:45.452Z,1.67
2018-06-28T03:55:47.432Z,1.50
2018-06-28T03:57:49.733Z,1.65
2018-06-28T03:59:51.702Z,1.92
2018-06-28T04:01:53.658Z,1.30
2018-06-28T04:03:55.612Z,1.70
2018-06-28T04:05:57.584Z,1.60
2018-06-28T04:07:59.550Z,1.50
2018-06-28T04:10:01.503Z,2.58
2018-06-28T04:12:03.466Z,1.45
2018-06-28T04:14:05.432Z,1.35
2018-06-28T04:16:07.407Z,1.57
2018-06-28T04:18:09.387Z,1.70
2018-06-28T04:20:11.331Z,1.60
2018-06-28T04:22:13.305Z,1.85
2018-06-28T04:24:15.261Z,1.60
2018-06-28T04:26:17.225Z,1.50
2018-06-28T04:28:19.205Z,1.40
2018-06-28T04:30:21.169Z,1.70
2018-06-28T04:32:23.125Z,1.77
2018-06-28T04:34:25.117Z,1.70
2018-06-28T04:36:27.073Z,1.90
2018-06-28T04:38:29.034Z,2.17
2018-06-28T04:40:31.017Z,1.60
2018-06-28T04:42:32.971Z,1.80
2018-06-28T04:44:34.945Z,1.75
2018-06-28T04:46:36.905Z,1.85
2018-06-28T04:48:38.868Z,1.72
2018-06-28T04:50:40.837Z,1.50
2018-06-28T04:52:42.795Z,1.82
2018-06-28T04:54:44.761Z,1.50
2018-06-28T04:56:46.995Z,1.60
2018-06-28T04:58:48.949Z,1.62
2018-06-28T05:00:50.939Z,1.80
2018-06-28T05:02:52.907Z,2.40
2018-06-28T05:04:54.863Z,1.67
2018-06-28T05:06:56.881Z,1.60
2018-06-28T05:08:58.783Z,1.77
2018-06-28T05:11:00.761Z,1.67
2018-06-28T05:13:02.719Z,1.80
2018-06-28T05:15:04.795Z,1.45
2018-06-28T05:17:06.980Z,1.60
2018-06-28T05:19:08.878Z,1.60
2018-06-28T05:21:10.856Z,1.70
2018-06-28T05:23:12.808Z,1.80
2018-06-28T05:25:14.793Z,1.85
2018-06-28T05:27:16.768Z,1.60
2018-06-28T05:29:18.840Z,1.60
2018-06-28T05:31:20.795Z,1.77
2018-06-28T05:33:22.747Z,1.50
2018-06-28T05:35:24.725Z,1.80
2018-06-28T05:37:26.696Z,1.80
2018-06-28T05:39:28.652Z,1.77
2018-06-28T05:41:30.622Z,1.80
2018-06-28T05:43:32.589Z,1.50
2018-06-28T05:45:34.574Z,1.80
2018-06-28T05:47:36.555Z,1.70
2018-06-28T05:49:38.521Z,1.45
2018-06-28T05:51:40.495Z,1.80
2018-06-28T05:53:42.467Z,1.47
2018-06-28T05:55:44.427Z,1.70
2018-06-28T05:57:46.389Z,1.50
2018-06-28T05:59:48.355Z,1.80
2018-06-28T06:01:50.312Z,1.20
2018-06-28T06:03:52.253Z,1.87
2018-06-28T06:05:54.255Z,1.77
2018-06-28T06:07:56.191Z,1.60
2018-06-28T06:09:58.173Z,1.80
2018-06-28T06:12:00.204Z,1.60
2018-06-28T06:14:02.242Z,1.60
2018-06-28T06:16:04.105Z,1.70
2018-06-28T06:18:06.049Z,1.80
2018-06-28T06:20:08.031Z,1.60
2018-06-28T06:22:10.052Z,1.70
2018-06-28T06:24:11.969Z,1.50
2018-06-28T06:26:13.998Z,1.60
2018-06-28T06:28:15.921Z,1.37
2018-06-28T06:30:17.867Z,1.50
2018-06-28T06:32:19.829Z,1.80
2018-06-28T06:34:21.806Z,1.70
2018-06-28T06:36:23.767Z,1.50
2018-06-28T06:38:26.128Z,1.52
2018-06-28T06:40:27.967Z,1.47
2018-06-28T06:42:29.928Z,1.60
2018-06-28T06:44:31.900Z,1.60
2018-06-28T06:46:33.869Z,1.77
2018-06-28T06:48:35.838Z,1.62
2018-06-28T06:50:37.780Z,1.50
2018-06-28T06:52:39.772Z,1.40
2018-06-28T06:54:41.784Z,1.70
2018-06-28T06:56:43.923Z,1.50
2018-06-28T06:58:45.907Z,1.70
2018-06-28T07:00:47.862Z,1.35
2018-06-28T07:02:49.832Z,1.50
2018-06-28T07:04:51.802Z,1.60
2018-06-28T07:06:53.765Z,1.27
2018-06-28T07:08:55.742Z,1.75
2018-06-28T07:10:57.705Z,1.50
2018-06-28T07:12:59.708Z,1.70
2018-06-28T07:15:01.654Z,1.60
2018-06-28T07:17:03.615Z,1.37
2018-06-28T07:19:05.600Z,1.50
2018-06-28T07:21:07.549Z,1.67
2018-06-28T07:23:09.566Z,1.25
2018-06-28T07:25:11.490Z,1.32
2018-06-28T07:27:13.445Z,1.35
2018-06-28T07:29:15.394Z,1.60
2018-06-28T07:31:17.741Z,1.52
2018-06-28T07:33:19.722Z,1.30
2018-06-28T07:35:21.678Z,1.20
2018-06-28T07:37:24.080Z,1.65
2018-06-28T07:39:26.045Z,1.40
2018-06-28T07:41:28.092Z,1.57
2018-06-28T07:43:30.043Z,1.75
2018-06-28T07:45:32.009Z,1.62
2018-06-28T07:47:33.960Z,1.70
2018-06-28T07:49:35.928Z,1.52
2018-06-28T07:51:37.898Z,1.45
2018-06-28T07:53:39.871Z,1.60
2018-06-28T07:55:41.829Z,1.42
2018-06-28T07:57:43.786Z,1.32
2018-06-28T07:59:45.754Z,1.40
2018-06-28T08:01:47.718Z,1.67
2018-06-28T08:03:49.698Z,1.22
2018-06-28T08:05:51.742Z,1.67
2018-06-28T08:07:53.704Z,1.40
2018-06-28T08:09:55.669Z,1.60
2018-06-28T08:11:57.656Z,1.20
2018-06-28T08:13:59.594Z,1.67
2018-06-28T08:16:01.567Z,1.42
2018-06-28T08:18:03.550Z,1.40
2018-06-28T08:20:05.537Z,1.65
2018-06-28T08:22:07.500Z,1.50
2018-06-28T08:24:09.452Z,1.42
2018-06-28T08:26:11.410Z,1.47
2018-06-28T08:28:13.439Z,1.60
2018-06-28T08:30:15.624Z,1.70
2018-06-28T08:32:17.591Z,1.47
2018-06-28T08:34:19.547Z,1.47
2018-06-28T08:36:21.518Z,1.30
2018-06-28T08:38:23.468Z,1.47
2018-06-28T08:40:25.429Z,1.30
2018-06-28T08:42:27.411Z,1.55
2018-06-28T08:44:29.356Z,1.55
2018-06-28T08:46:31.335Z,1.47
2018-06-28T08:48:33.276Z,1.42
2018-06-28T08:50:35.242Z,1.47
2018-06-28T08:52:37.240Z,1.35
2018-06-28T08:54:39.206Z,1.50
2018-06-28T08:56:41.177Z,1.47
2018-06-28T08:58:43.138Z,1.70
2018-06-28T09:00:45.104Z,1.75
2018-06-28T09:02:47.089Z,1.22
2018-06-28T09:04:49.048Z,1.70
2018-06-28T09:06:51.025Z,1.60
2018-06-28T09:08:52.993Z,1.52
2018-06-28T09:10:54.949Z,1.32
2018-06-28T09:12:56.905Z,1.60
2018-06-28T09:14:58.873Z,1.75
2018-06-28T09:17:00.831Z,1.75
2018-06-28T09:19:02.795Z,1.70
2018-06-28T09:21:04.767Z,1.77
2018-06-28T09:23:06.771Z,1.70
2018-06-28T09:25:08.699Z,1.67
2018-06-28T09:27:11.060Z,1.50
2018-06-28T09:29:12.894Z,1.70
2018-06-28T09:31:14.855Z,1.47
2018-06-28T09:33:16.813Z,1.70
2018-06-28T09:35:18.785Z,1.50
2018-06-28T09:37:20.754Z,1.37
2018-06-28T09:39:22.708Z,1.60
2018-06-28T09:41:24.909Z,1.70
2018-06-28T09:43:26.863Z,1.30
2018-06-28T09:45:28.810Z,1.72
2018-06-28T09:47:30.789Z,1.45
2018-06-28T09:49:32.731Z,1.77
2018-06-28T09:51:34.742Z,1.42
2018-06-28T09:53:36.701Z,1.70
2018-06-28T09:55:38.649Z,1.82
2018-06-28T09:57:40.621Z,1.60
2018-06-28T09:59:42.577Z,1.65
2018-06-28T10:01:44.564Z,1.70
2018-06-28T10:03:46.511Z,1.70
2018-06-28T10:05:48.476Z,1.52
2018-06-28T10:07:50.449Z,1.72
2018-06-28T10:09:52.437Z,1.72
2018-06-28T10:11:54.377Z,1.62
2018-06-28T10:13:56.351Z,1.70
2018-06-28T10:15:58.308Z,1.72
2018-06-28T10:18:00.390Z,1.62
2018-06-28T10:20:02.305Z,2.08
2018-06-28T10:22:04.267Z,1.65
2018-06-28T10:24:06.233Z,1.50
2018-06-28T10:26:08.190Z,1.70
2018-06-28T10:28:10.189Z,1.70
2018-06-28T10:30:12.141Z,1.62
2018-06-28T10:32:14.113Z,1.50
2018-06-28T10:34:16.055Z,2.20
2018-06-28T10:36:18.009Z,1.77
2018-06-28T10:38:19.979Z,1.87
2018-06-28T10:40:21.948Z,309.02
2018-06-28T10:42:23.927Z,174.42
2018-06-28T10:44:25.887Z,144.65
2018-06-28T10:46:27.983Z,129.75
2018-06-28T10:48:29.987Z,59.33
2018-06-28T10:50:32.024Z,38.28
2018-06-28T10:52:33.960Z,40.30
2018-06-28T10:54:35.977Z,33.98
2018-06-28T10:56:37.917Z,31.50
2018-06-28T10:58:39.890Z,35.50
2018-06-28T11:00:41.880Z,31.35
2018-06-28T11:02:43.838Z,30.70
2018-06-28T11:04:46.021Z,30.30
2018-06-28T11:06:47.970Z,28.47
2018-06-28T11:08:49.920Z,26.02
2018-06-28T11:10:51.909Z,24.57
2018-06-28T11:12:53.931Z,29.60
2018-06-28T11:14:55.893Z,22.65
2018-06-28T11:16:57.884Z,21.40
2018-06-28T11:18:59.843Z,26.68
2018-06-28T11:21:01.826Z,27.07
2018-06-28T11:23:03.808Z,738.20
2018-06-28T11:25:05.812Z,69.22
2018-06-28T11:27:07.769Z,82.90
2018-06-28T11:29:09.731Z,101.33
2018-06-28T11:31:11.747Z,116.55
2018-06-28T11:33:13.710Z,120.40
2018-06-28T11:35:15.695Z,132.15
2018-06-28T11:37:17.656Z,130.97
2018-06-28T11:39:19.659Z,137.28
2018-06-28T11:41:21.657Z,138.10
2018-06-28T11:43:23.619Z,139.72
2018-06-28T11:45:25.594Z,137.70
2018-06-28T11:47:27.578Z,139.70
2018-06-28T11:49:29.536Z,132.78
2018-06-28T11:51:31.529Z,142.15
2018-06-28T11:53:33.482Z,451.50
2018-06-28T11:55:35.457Z,246.85
2018-06-28T11:57:37.442Z,186.80
2018-06-28T11:59:39.430Z,209.00
2018-06-28T12:01:41.408Z,221.68
2018-06-28T12:03:43.591Z,236.47
2018-06-28T12:05:45.576Z,224.45
2018-06-28T12:07:47.544Z,235.25
2018-06-28T12:09:49.515Z,222.15
2018-06-28T12:11:51.496Z,229.78
2018-06-28T12:13:53.500Z,227.07
2018-06-28T12:15:55.474Z,242.20
2018-06-28T12:17:57.454Z,232.18
2018-06-28T12:19:59.447Z,220.10
2018-06-28T12:22:01.452Z,219.72
2018-06-28T12:24:03.404Z,215.97
2018-06-28T12:26:05.398Z,206.57
2018-06-28T12:28:07.370Z,206.53
2018-06-28T12:30:09.342Z,206.15
2018-06-28T12:32:11.316Z,211.77
2018-06-28T12:34:13.292Z,207.32
2018-06-28T12:36:15.267Z,197.37
2018-06-28T12:38:17.249Z,209.67
2018-06-28T12:40:19.234Z,450.98
2018-06-28T12:42:21.211Z,551.42
2018-06-28T12:44:23.194Z,243.95
2018-06-28T12:46:25.227Z,240.07
2018-06-28T12:48:27.175Z,249.98
2018-06-28T12:50:29.147Z,261.87
2018-06-28T12:52:31.118Z,272.25
2018-06-28T12:54:33.089Z,261.70
2018-06-28T12:56:35.082Z,259.10
2018-06-28T12:58:37.044Z,261.10
2018-06-28T13:00:39.055Z,274.18
2018-06-28T13:02:41.029Z,261.32
2018-06-28T13:04:43.015Z,272.45
2018-06-28T13:06:44.985Z,251.60
2018-06-28T13:08:46.963Z,257.15
2018-06-28T13:10:48.930Z,246.40
2018-06-28T13:12:51.249Z,250.87
2018-06-28T13:14:53.220Z,242.50
2018-06-28T13:16:55.198Z,240.87
2018-06-28T13:18:57.166Z,244.55
2018-06-28T13:20:59.153Z,238.40
2018-06-28T13:23:01.134Z,233.85
2018-06-28T13:25:03.099Z,231.15
2018-06-28T13:27:05.089Z,240.25
2018-06-28T13:29:07.055Z,223.50
2018-06-28T13:31:09.037Z,232.72
2018-06-28T13:33:11.019Z,240.20
2018-06-28T13:35:13.401Z,293.27
2018-06-28T13:37:15.246Z,267.98
2018-06-28T13:39:17.276Z,310.60
2018-06-28T13:41:19.356Z,349.15
2018-06-28T13:43:21.212Z,346.87
2018-06-28T13:45:23.192Z,391.70
2018-06-28T13:47:25.217Z,393.60
2018-06-28T13:49:27.211Z,414.55
2018-06-28T13:51:29.164Z,390.32
2018-06-28T13:53:31.167Z,405.57
2018-06-28T13:55:33.147Z,398.87
2018-06-28T13:57:35.490Z,368.30
2018-06-28T13:59:37.359Z,399.10
2018-06-28T14:01:39.382Z,429.10
2018-06-28T14:03:41.284Z,470.80
2018-06-28T14:05:44.501Z,482.12
2018-06-28T14:07:46.448Z,484.43
2018-06-28T14:09:48.439Z,479.80
2018-06-28T14:11:50.426Z,460.35
2018-06-28T14:13:52.803Z,469.02
2018-06-28T14:15:54.656Z,461.43
2018-06-28T14:17:56.625Z,467.75
2018-06-28T14:19:58.623Z,487.55
2018-06-28T14:22:00.593Z,530.27
2018-06-28T14:24:02.561Z,536.35
2018-06-28T14:26:04.555Z,550.35
2018-06-28T14:28:06.580Z,554.15
2018-06-28T14:30:08.488Z,565.52
2018-06-28T14:32:10.475Z,612.38
2018-06-28T14:34:12.468Z,620.80
2018-06-28T14:36:14.453Z,603.40
2018-06-28T14:38:16.425Z,615.75
2018-06-28T14:40:18.408Z,592.77
2018-06-28T14:42:20.395Z,594.50
2018-06-28T14:44:22.365Z,608.42
2018-06-28T14:46:24.345Z,593.15
2018-06-28T14:48:26.311Z,574.70
2018-06-28T14:50:28.315Z,590.85
2018-06-28T14:52:30.280Z,582.67
2018-06-28T14:54:32.261Z,579.67
2018-06-28T14:56:34.229Z,583.58
2018-06-28T14:58:36.285Z,581.87
2018-06-28T15:00:38.199Z,575.25
2018-06-28T15:02:40.171Z,560.75
2018-06-28T15:04:42.140Z,559.13
2018-06-28T15:06:44.110Z,545.98
2018-06-28T15:08:46.099Z,536.47
2018-06-28T15:10:48.061Z,564.92
2018-06-28T15:12:50.048Z,543.48
2018-06-28T15:14:51.994Z,530.67
2018-06-28T15:16:53.963Z,528.38
2018-06-28T15:18:55.957Z,521.33
2018-06-28T15:20:57.935Z,531.25
2018-06-28T15:22:59.921Z,530.37
2018-06-28T15:25:01.914Z,508.50
2018-06-28T15:27:03.900Z,521.37
2018-06-28T15:29:05.884Z,519.85
2018-06-28T15:31:07.886Z,514.75
2018-06-28T15:33:09.894Z,521.58
2018-06-28T15:35:12.991Z,515.33
2018-06-28T15:37:14.975Z,506.87
2018-06-28T15:39:16.960Z,507.90
2018-06-28T15:41:18.934Z,516.77
2018-06-28T15:43:20.912Z,476.52
2018-06-28T15:45:23.011Z,520.17
2018-06-28T15:47:24.994Z,551.87
2018-06-28T15:49:26.964Z,643.65
2018-06-28T15:51:28.930Z,770.10
2018-06-28T15:53:30.911Z,639.60
2018-06-28T15:55:32.919Z,576.95
2018-06-28T15:57:34.925Z,511.58
2018-06-28T15:59:36.894Z,390.18
2018-06-28T16:01:38.876Z,435.82
2018-06-28T16:03:40.884Z,402.30
2018-06-28T16:05:42.848Z,381.68
2018-06-28T16:07:44.816Z,315.18
2018-06-28T16:09:46.802Z,279.60
2018-06-28T16:11:48.798Z,240.30
2018-06-28T16:13:50.802Z,224.92
2018-06-28T16:15:52.794Z,368.95
2018-06-28T16:17:54.768Z,286.87
2018-06-28T16:19:56.823Z,217.45
2018-06-28T16:21:59.516Z,197.60
2018-06-28T16:24:01.502Z,170.45
2018-06-28T16:26:03.468Z,162.60
2018-06-28T16:28:05.432Z,249.12
2018-06-28T16:30:07.424Z,166.47
2018-06-28T16:32:09.394Z,159.78
2018-06-28T16:34:11.377Z,197.13
2018-06-28T16:36:13.360Z,227.47
2018-06-28T16:38:15.340Z,205.27
2018-06-28T16:40:17.336Z,194.77
2018-06-28T16:42:19.290Z,187.43
2018-06-28T16:44:21.251Z,169.62
2018-06-28T16:46:23.676Z,151.20
2018-06-28T16:48:25.469Z,141.53
2018-06-28T16:50:27.456Z,119.28
2018-06-28T16:52:29.510Z,109.95
2018-06-28T16:54:31.424Z,376.45
2018-06-28T16:56:33.425Z,308.57
2018-06-28T16:58:35.438Z,183.55
2018-06-28T17:00:37.405Z,179.47
2018-06-28T17:02:39.714Z,161.12
2018-06-28T17:04:41.679Z,442.07
2018-06-28T17:06:43.650Z,231.97
2018-06-28T17:08:45.640Z,228.90
2018-06-28T17:10:47.604Z,234.67
2018-06-28T17:12:49.584Z,203.77
2018-06-28T17:14:51.560Z,402.30
2018-06-28T17:16:53.550Z,202.78
2018-06-28T17:18:55.530Z,207.37
2018-06-28T17:20:57.502Z,213.37
2018-06-28T17:22:59.507Z,207.52
2018-06-28T17:25:01.469Z,208.72
2018-06-28T17:27:03.536Z,210.53
2018-06-28T17:29:05.820Z,212.27
2018-06-28T17:31:07.672Z,207.72
2018-06-28T17:33:09.632Z,224.65
2018-06-28T17:35:11.631Z,227.87
2018-06-28T17:37:13.605Z,223.55
2018-06-28T17:39:15.590Z,212.68
2018-06-28T17:41:17.574Z,185.57
2018-06-28T17:43:19.560Z,163.00
2018-06-28T17:45:21.538Z,151.70
2018-06-28T17:47:23.513Z,135.50
2018-06-28T17:49:25.523Z,125.67
2018-06-28T17:51:27.484Z,641.30
2018-06-28T17:53:29.483Z,455.95
2018-06-28T17:55:31.446Z,185.75
2018-06-28T17:57:33.436Z,139.07
2018-06-28T17:59:35.417Z,191.55
2018-06-28T18:01:37.451Z,184.37
2018-06-28T18:03:39.452Z,231.68
2018-06-28T18:05:41.433Z,261.10
2018-06-28T18:07:43.408Z,263.00
2018-06-28T18:09:45.373Z,278.52
2018-06-28T18:11:47.370Z,292.18
2018-06-28T18:13:49.735Z,275.00
2018-06-28T18:15:51.600Z,288.12
2018-06-28T18:17:53.591Z,334.85
2018-06-28T18:19:55.561Z,361.92
2018-06-28T18:21:57.532Z,373.82
2018-06-28T18:23:59.498Z,374.37
2018-06-28T18:26:01.493Z,381.50
2018-06-28T18:28:03.477Z,393.10
2018-06-28T18:30:05.473Z,441.92
2018-06-28T18:32:07.445Z,470.12
2018-06-28T18:34:09.422Z,460.87
2018-06-28T18:36:11.391Z,453.05
2018-06-28T18:38:13.399Z,451.77
2018-06-28T18:40:15.369Z,507.75
2018-06-28T18:42:17.344Z,559.55
2018-06-28T18:44:19.322Z,551.15
2018-06-28T18:46:21.317Z,545.05
2018-06-28T18:48:23.273Z,556.80
2018-06-28T18:50:25.360Z,556.50
2018-06-28T18:52:27.544Z,540.08
2018-06-28T18:54:29.518Z,542.05
2018-06-28T18:56:31.510Z,529.27
2018-06-28T18:58:33.500Z,531.90
2018-06-28T19:00:35.479Z,520.75
2018-06-28T19:02:37.441Z,524.45
2018-06-28T19:04:39.423Z,558.20
2018-06-28T19:06:41.412Z,576.73
2018-06-28T19:08:43.411Z,591.98
2018-06-28T19:10:45.409Z,597.60
2018-06-28T19:12:47.427Z,604.98
2018-06-28T19:14:49.391Z,589.42
2018-06-28T19:16:51.392Z,608.53
2018-06-28T19:18:53.388Z,662.60
2018-06-28T19:20:55.371Z,662.98
2018-06-28T19:22:57.338Z,647.60
2018-06-28T19:24:59.325Z,652.97
2018-06-28T19:27:01.317Z,641.92
2018-06-28T19:29:03.285Z,643.70
2018-06-28T19:31:05.282Z,644.05
2018-06-28T19:33:07.253Z,628.15
2018-06-28T19:35:09.240Z,632.40
2018-06-28T19:37:11.234Z,597.05
2018-06-28T19:39:13.204Z,621.98
2018-06-28T19:41:15.242Z,607.90
2018-06-28T19:43:17.525Z,617.20
2018-06-28T19:45:19.518Z,610.97
2018-06-28T19:47:21.492Z,626.08
2018-06-28T19:49:23.473Z,683.92
2018-06-28T19:51:25.458Z,699.95
2018-06-28T19:53:27.464Z,703.20
2018-06-28T19:55:29.409Z,697.77
2018-06-28T19:57:31.464Z,695.62
2018-06-28T19:59:33.433Z,699.75
2018-06-28T20:01:35.391Z,695.27
2018-06-28T20:03:37.368Z,674.27
2018-06-28T20:05:39.342Z,679.05
2018-06-28T20:07:41.347Z,678.58
2018-06-28T20:09:43.765Z,742.42
2018-06-28T20:11:45.584Z,766.75
2018-06-28T20:13:47.558Z,785.67
2018-06-28T20:15:49.542Z,789.45
2018-06-28T20:17:51.552Z,773.05
2018-06-28T20:19:53.520Z,805.12
2018-06-28T20:21:55.567Z,843.88
2018-06-28T20:23:57.532Z,838.33
2018-06-28T20:25:59.509Z,849.10
2018-06-28T20:28:01.526Z,834.47
2018-06-28T20:30:03.500Z,826.05
2018-06-28T20:32:05.484Z,821.65
2018-06-28T20:34:07.465Z,971.92
2018-06-28T20:36:09.448Z,817.88
2018-06-28T20:38:11.434Z,812.75
2018-06-28T20:40:13.426Z,867.15
2018-06-28T20:42:15.420Z,879.03
2018-06-28T20:44:17.392Z,877.17
2018-06-28T20:46:19.384Z,892.25
2018-06-28T20:48:21.367Z,901.58
2018-06-28T20:50:23.354Z,923.95
2018-06-28T20:52:25.363Z,939.40
2018-06-28T20:54:27.352Z,936.82
2018-06-28T20:56:29.327Z,933.42
2018-06-28T20:58:31.326Z,929.40
2018-06-28T21:00:33.306Z,947.70
2018-06-28T21:02:35.302Z,988.57
2018-06-28T21:04:37.257Z,997.95
2018-06-28T21:06:39.238Z,992.60
2018-06-28T21:08:41.246Z,985.70
2018-06-28T21:10:43.218Z,973.12
2018-06-28T21:12:45.180Z,954.70
2018-06-28T21:14:47.177Z,963.18
2018-06-28T21:16:49.172Z,1045.85
2018-06-28T21:18:51.138Z,1215.35
2018-06-28T21:20:53.127Z,984.88
2018-06-28T21:22:55.088Z,981.55
2018-06-28T21:24:57.150Z,1002.85
2018-06-28T21:26:59.116Z,1009.20
2018-06-28T21:29:01.109Z,997.95
2018-06-28T21:31:03.081Z,1003.80
2018-06-28T21:33:05.062Z,997.15
2018-06-28T21:35:07.049Z,996.65
2018-06-28T21:37:09.025Z,980.20
2018-06-28T21:39:11.012Z,982.77
2018-06-28T21:41:12.981Z,981.53
2018-06-28T21:43:15.357Z,972.20
2018-06-28T21:45:17.196Z,970.40
2018-06-28T21:47:19.190Z,1003.02
2018-06-28T21:49:21.176Z,1031.43
2018-06-28T21:51:23.180Z,1041.20
2018-06-28T21:53:25.136Z,1029.45
2018-06-28T21:55:27.196Z,1034.78
2018-06-28T21:57:29.116Z,1024.38
2018-06-28T21:59:31.082Z,1093.33
2018-06-28T22:01:33.056Z,1023.93
2018-06-28T22:03:35.033Z,1040.40
2018-06-28T22:05:37.359Z,1072.55
2018-06-28T22:07:39.320Z,1081.30
2018-06-28T22:09:42.160Z,1072.28
2018-06-28T22:11:44.170Z,1062.35
2018-06-28T22:13:46.128Z,1056.28
2018-06-28T22:15:48.126Z,1049.63
2018-06-28T22:17:50.103Z,1049.95
2018-06-28T22:19:52.114Z,1041.23
2018-06-28T22:21:54.069Z,1047.95
2018-06-28T22:23:56.062Z,1053.50
2018-06-28T22:25:58.058Z,1055.68
2018-06-28T22:28:00.064Z,1103.90
2018-06-28T22:30:02.037Z,1105.20
2018-06-28T22:32:04.021Z,1144.55
2018-06-28T22:34:06.086Z,1143.10
2018-06-28T22:36:07.999Z,1143.45
2018-06-28T22:38:09.975Z,1122.05
2018-06-28T22:40:12.005Z,1121.83
2018-06-28T22:42:13.985Z,1112.78
2018-06-28T22:44:15.953Z,1111.33
2018-06-28T22:46:17.943Z,1114.92
2018-06-28T22:48:19.917Z,1108.03
2018-06-28T22:50:21.965Z,1099.13
2018-06-28T22:52:24.139Z,1104.13
2018-06-28T22:54:26.124Z,1088.98
2018-06-28T22:56:28.106Z,1087.73
2018-06-28T22:58:30.468Z,1086.23
2018-06-28T23:00:32.321Z,1081.35
2018-06-28T23:02:34.317Z,1084.13
2018-06-28T23:04:36.386Z,1079.65
2018-06-28T23:06:38.738Z,1068.05
2018-06-28T23:08:40.630Z,1067.00
2018-06-28T23:10:42.575Z,1072.72
2018-06-28T23:12:44.588Z,1056.90
2018-06-28T23:14:46.538Z,1062.45
2018-06-28T23:16:48.529Z,1063.70
2018-06-28T23:18:50.493Z,1053.33
2018-06-28T23:20:52.465Z,1052.53
2018-06-28T23:22:54.445Z,1058.08
2018-06-28T23:24:56.431Z,1048.15
2018-06-28T23:26:58.416Z,1052.55
2018-06-28T23:29:00.388Z,1043.23
2018-06-28T23:31:02.370Z,1037.55
2018-06-28T23:33:04.368Z,1042.78
2018-06-28T23:35:06.346Z,1032.10
2018-06-28T23:37:08.340Z,1034.98
2018-06-28T23:39:10.309Z,1029.55
2018-06-28T23:41:12.545Z,1019.85
2018-06-28T23:43:14.535Z,1024.43
2018-06-28T23:45:16.493Z,1012.45
2018-06-28T23:47:18.475Z,1002.97
2018-06-28T23:49:20.458Z,1014.28
2018-06-28T23:51:22.422Z,1009.95
2018-06-28T23:53:24.399Z,1010.38
2018-06-28T23:55:26.381Z,986.30
2018-06-28T23:57:28.357Z,1002.60
2018-06-28T23:59:30.339Z,987.70
